createdAt,value
2019-03-16T00:01:57.777Z,38.65
2019-03-16T00:04:31.277Z,38.78
2019-03-16T00:07:04.785Z,38.65
2019-03-16T00:09:38.266Z,38.66
2019-03-16T00:12:11.767Z,38.55
2019-03-16T00:14:45.300Z,38.40
2019-03-16T00:17:23.266Z,38.44
2019-03-16T00:19:54.045Z,38.35
2019-03-16T00:22:27.383Z,38.34
2019-03-16T00:25:00.726Z,38.30
2019-03-16T00:27:34.333Z,38.38
2019-03-16T00:30:10.665Z,38.30
2019-03-16T00:32:44.354Z,38.24
2019-03-16T00:35:17.694Z,38.26
2019-03-16T00:37:51.123Z,38.24
2019-03-16T00:40:24.764Z,38.24
2019-03-16T00:42:58.303Z,38.22
2019-03-16T00:45:31.619Z,38.20
2019-03-16T00:48:05.213Z,38.25
2019-03-16T00:50:38.509Z,38.24
2019-03-16T00:53:12.048Z,38.21
2019-03-16T00:55:45.349Z,38.19
2019-03-16T00:58:18.695Z,38.20
2019-03-16T01:00:52.014Z,38.20
2019-03-16T01:03:25.364Z,38.20
2019-03-16T01:05:58.674Z,38.32
2019-03-16T01:08:33.864Z,38.27
2019-03-16T01:11:07.389Z,38.22
2019-03-16T01:13:40.717Z,38.24
2019-03-16T01:16:14.042Z,38.22
2019-03-16T01:18:47.473Z,38.26
2019-03-16T01:21:20.796Z,38.31
2019-03-16T01:23:54.132Z,38.26
2019-03-16T01:26:27.440Z,38.29
2019-03-16T01:29:00.843Z,38.35
2019-03-16T01:31:34.225Z,38.29
2019-03-16T01:34:07.588Z,38.36
2019-03-16T01:36:40.916Z,38.33
2019-03-16T01:39:14.310Z,38.38
2019-03-16T01:41:47.821Z,38.41
2019-03-16T01:44:22.749Z,38.43
2019-03-16T01:46:56.137Z,38.35
2019-03-16T01:49:29.510Z,38.42
2019-03-16T01:52:02.827Z,38.43
2019-03-16T01:54:36.401Z,38.48
2019-03-16T01:57:09.718Z,38.47
2019-03-16T01:59:43.116Z,38.55
2019-03-16T02:02:16.443Z,38.46
2019-03-16T02:04:49.831Z,38.50
2019-03-16T02:07:23.138Z,38.45
2019-03-16T02:09:56.515Z,38.51
2019-03-16T02:12:29.911Z,38.52
2019-03-16T02:15:04.085Z,38.53
2019-03-16T02:17:37.472Z,38.52
2019-03-16T02:20:10.784Z,38.61
2019-03-16T02:22:45.746Z,38.55
2019-03-16T02:25:19.085Z,38.59
2019-03-16T02:27:52.475Z,38.56
2019-03-16T02:30:25.855Z,38.64
2019-03-16T02:33:12.845Z,38.58
2019-03-16T02:35:35.814Z,38.65
2019-03-16T02:38:09.118Z,38.66
2019-03-16T02:40:42.514Z,38.69
2019-03-16T02:43:15.819Z,38.70
2019-03-16T02:45:49.175Z,38.75
2019-03-16T02:48:22.502Z,38.78
2019-03-16T02:50:55.867Z,38.78
2019-03-16T02:53:29.185Z,38.86
2019-03-16T02:56:02.360Z,38.75
2019-03-16T02:58:35.686Z,38.81
2019-03-16T03:01:10.204Z,38.84
2019-03-16T03:03:43.786Z,38.81
2019-03-16T03:06:17.166Z,38.90
2019-03-16T03:08:50.476Z,38.88
2019-03-16T03:11:25.124Z,38.93
2019-03-16T03:13:58.455Z,38.97
2019-03-16T03:16:31.776Z,39.00
2019-03-16T03:19:05.096Z,39.04
2019-03-16T03:21:39.800Z,39.09
2019-03-16T03:24:13.194Z,39.14
2019-03-16T03:26:46.576Z,39.16
2019-03-16T03:29:20.555Z,39.23
2019-03-16T03:31:53.719Z,39.26
2019-03-16T03:34:27.021Z,39.31
2019-03-16T03:37:00.385Z,39.38
2019-03-16T03:39:33.776Z,39.40
2019-03-16T03:42:07.077Z,39.42
2019-03-16T03:44:40.389Z,39.45
2019-03-16T03:47:13.743Z,39.54
2019-03-16T03:49:47.108Z,39.59
2019-03-16T03:52:20.680Z,39.54
2019-03-16T03:54:54.091Z,39.60
2019-03-16T03:57:27.411Z,39.68
2019-03-16T04:00:00.711Z,39.64
2019-03-16T04:02:35.804Z,39.62
2019-03-16T04:05:09.154Z,39.67
2019-03-16T04:07:42.485Z,39.74
2019-03-16T04:10:15.905Z,39.79
2019-03-16T04:12:49.208Z,39.81
2019-03-16T04:15:22.615Z,39.85
2019-03-16T04:17:55.914Z,39.83
2019-03-16T04:20:29.288Z,39.84
2019-03-16T04:23:02.592Z,39.95
2019-03-16T04:25:35.990Z,39.88
2019-03-16T04:28:09.290Z,39.93
2019-03-16T04:30:42.937Z,39.94
2019-03-16T04:33:16.234Z,40.04
2019-03-16T04:35:49.646Z,39.96
2019-03-16T04:38:22.978Z,39.84
2019-03-16T04:40:56.375Z,39.77
2019-03-16T04:43:30.758Z,39.78
2019-03-16T04:46:04.108Z,39.90
2019-03-16T04:48:37.427Z,39.96
2019-03-16T04:51:10.848Z,39.99
2019-03-16T04:53:44.145Z,40.04
2019-03-16T04:56:17.313Z,40.10
2019-03-16T04:58:51.759Z,40.12
2019-03-16T05:01:25.431Z,40.14
2019-03-16T05:03:58.736Z,40.09
2019-03-16T05:06:32.072Z,40.00
2019-03-16T05:09:07.194Z,39.84
2019-03-16T05:11:40.885Z,39.70
2019-03-16T05:14:14.207Z,39.59
2019-03-16T05:16:48.682Z,39.51
2019-03-16T05:19:21.979Z,39.38
2019-03-16T05:21:55.404Z,39.15
2019-03-16T05:24:28.772Z,38.95
2019-03-16T05:27:02.136Z,38.80
2019-03-16T05:29:35.610Z,38.69
2019-03-16T05:32:09.137Z,38.53
2019-03-16T05:34:55.642Z,38.42
2019-03-16T05:37:17.624Z,38.23
2019-03-16T05:39:50.935Z,38.10
2019-03-16T05:42:24.286Z,37.92
2019-03-16T05:44:57.599Z,37.88
2019-03-16T05:47:31.277Z,37.72
2019-03-16T05:50:09.085Z,37.69
2019-03-16T05:52:42.437Z,37.66
2019-03-16T05:55:15.729Z,37.63
2019-03-16T05:57:49.091Z,37.60
2019-03-16T06:00:22.210Z,37.53
2019-03-16T06:02:55.581Z,37.54
2019-03-16T06:05:29.078Z,37.50
2019-03-16T06:08:02.405Z,37.62
2019-03-16T06:10:35.820Z,37.65
2019-03-16T06:13:09.161Z,37.62
2019-03-16T06:15:44.202Z,37.62
2019-03-16T06:18:17.729Z,37.67
2019-03-16T06:20:51.301Z,37.66
2019-03-16T06:23:24.510Z,37.78
2019-03-16T06:25:57.911Z,37.75
2019-03-16T06:28:31.298Z,37.74
2019-03-16T06:31:04.870Z,37.78
2019-03-16T06:33:38.200Z,37.83
2019-03-16T06:36:11.706Z,37.82
2019-03-16T06:38:45.057Z,37.89
2019-03-16T06:41:18.612Z,37.91
2019-03-16T06:43:52.068Z,38.04
2019-03-16T06:46:25.388Z,38.04
2019-03-16T06:48:58.771Z,38.08
2019-03-16T06:51:32.076Z,38.11
2019-03-16T06:54:05.917Z,38.15
2019-03-16T06:56:39.267Z,38.21
2019-03-16T06:59:12.752Z,38.20
2019-03-16T07:01:46.079Z,38.26
2019-03-16T07:04:19.527Z,38.29
2019-03-16T07:06:52.851Z,38.39
2019-03-16T07:09:26.189Z,38.44
2019-03-16T07:11:59.519Z,38.43
2019-03-16T07:14:32.842Z,38.48
2019-03-16T07:17:06.335Z,38.53
2019-03-16T07:19:39.714Z,38.59
2019-03-16T07:22:13.737Z,38.59
2019-03-16T07:24:47.103Z,38.67
2019-03-16T07:27:26.181Z,38.73
2019-03-16T07:29:55.669Z,38.74
2019-03-16T07:32:29.150Z,38.75
2019-03-16T07:35:03.081Z,38.85
2019-03-16T07:37:36.421Z,38.85
2019-03-16T07:40:11.617Z,39.00
2019-03-16T07:42:44.991Z,38.97
2019-03-16T07:45:18.367Z,39.04
2019-03-16T07:47:51.716Z,39.02
2019-03-16T07:50:25.050Z,39.01
2019-03-16T07:52:58.371Z,39.09
2019-03-16T07:55:31.610Z,39.11
2019-03-16T07:58:05.197Z,39.12
2019-03-16T08:00:38.552Z,39.16
2019-03-16T08:03:13.632Z,39.23
2019-03-16T08:05:47.019Z,39.26
2019-03-16T08:08:20.326Z,39.26
2019-03-16T08:10:53.678Z,39.34
2019-03-16T08:13:27.087Z,39.40
2019-03-16T08:16:00.561Z,39.51
2019-03-16T08:18:33.937Z,39.57
2019-03-16T08:21:07.112Z,39.61
2019-03-16T08:23:40.265Z,39.80
2019-03-16T08:26:13.666Z,39.67
2019-03-16T08:28:47.169Z,39.59
2019-03-16T08:31:20.566Z,39.72
2019-03-16T08:33:53.981Z,39.96
2019-03-16T08:36:27.446Z,40.08
2019-03-16T08:39:00.799Z,40.07
2019-03-16T08:41:35.853Z,40.33
2019-03-16T08:44:09.247Z,40.42
2019-03-16T08:46:42.783Z,40.40
2019-03-16T08:49:18.863Z,40.32
2019-03-16T08:51:52.209Z,40.20
2019-03-16T08:54:25.538Z,40.11
2019-03-16T08:56:58.928Z,40.04
2019-03-16T08:59:32.547Z,39.99
2019-03-16T09:02:05.772Z,39.93
2019-03-16T09:04:39.131Z,39.86
2019-03-16T09:07:12.485Z,39.79
2019-03-16T09:09:45.991Z,39.78
2019-03-16T09:12:19.541Z,39.72
2019-03-16T09:14:52.935Z,39.70
2019-03-16T09:17:26.452Z,39.64
2019-03-16T09:19:59.887Z,39.59
2019-03-16T09:22:35.180Z,39.55
2019-03-16T09:25:09.651Z,39.50
2019-03-16T09:27:43.412Z,39.52
2019-03-16T09:30:17.297Z,39.57
2019-03-16T09:32:50.656Z,39.58
2019-03-16T09:35:24.228Z,39.54
2019-03-16T09:37:57.616Z,39.57
2019-03-16T09:40:30.929Z,39.57
2019-03-16T09:43:04.506Z,39.56
2019-03-16T09:45:37.858Z,39.56
2019-03-16T09:48:11.188Z,39.51
2019-03-16T09:50:44.810Z,39.50
2019-03-16T09:53:18.225Z,39.53
2019-03-16T09:55:52.705Z,39.63
2019-03-16T09:58:31.014Z,39.66
2019-03-16T10:01:01.138Z,39.68
2019-03-16T10:03:34.640Z,39.70
2019-03-16T10:06:08.234Z,39.74
2019-03-16T10:08:41.782Z,39.53
2019-03-16T10:11:15.576Z,39.59
2019-03-16T10:13:49.179Z,39.67
2019-03-16T10:16:23.067Z,39.75
2019-03-16T10:18:57.884Z,39.69
2019-03-16T10:21:31.285Z,39.80
2019-03-16T10:24:05.309Z,39.85
2019-03-16T10:26:38.716Z,39.81
2019-03-16T10:29:12.283Z,40.07
2019-03-16T10:31:45.989Z,40.22
2019-03-16T10:34:19.410Z,40.37
2019-03-16T10:36:53.085Z,40.40
2019-03-16T10:39:26.609Z,40.36
2019-03-16T10:42:00.447Z,40.32
2019-03-16T10:44:34.306Z,40.29
2019-03-16T10:47:07.903Z,40.24
2019-03-16T10:49:41.659Z,40.32
2019-03-16T10:52:15.336Z,40.27
2019-03-16T10:54:50.069Z,40.30
2019-03-16T10:57:23.562Z,40.26
2019-03-16T10:59:57.366Z,40.21
2019-03-16T11:02:30.970Z,40.30
2019-03-16T11:05:05.286Z,40.29
2019-03-16T11:07:39.023Z,40.40
2019-03-16T11:10:14.196Z,40.37
2019-03-16T11:12:48.065Z,40.54
2019-03-16T11:15:22.228Z,40.81
2019-03-16T11:17:55.866Z,40.98
2019-03-16T11:20:29.568Z,41.06
2019-03-16T11:23:03.166Z,41.09
2019-03-16T11:25:36.666Z,41.20
2019-03-16T11:28:10.157Z,41.29
2019-03-16T11:30:43.561Z,41.22
2019-03-16T11:33:17.024Z,41.31
2019-03-16T11:35:50.365Z,41.34
2019-03-16T11:38:24.061Z,41.34
2019-03-16T11:40:57.506Z,41.45
2019-03-16T11:43:31.380Z,41.41
2019-03-16T11:46:06.326Z,41.51
2019-03-16T11:48:39.886Z,41.67
2019-03-16T11:51:13.285Z,41.68
2019-03-16T11:53:48.024Z,40.96
2019-03-16T11:56:21.594Z,40.92
2019-03-16T11:58:54.929Z,41.09
2019-03-16T12:01:32.164Z,41.21
2019-03-16T12:04:06.249Z,41.16
2019-03-16T12:06:40.276Z,40.83
2019-03-16T12:09:17.005Z,40.81
2019-03-16T12:11:50.550Z,40.92
2019-03-16T12:14:23.909Z,40.95
2019-03-16T12:16:58.258Z,40.73
2019-03-16T12:19:33.761Z,40.96
2019-03-16T12:22:07.536Z,40.91
2019-03-16T12:24:41.250Z,40.75
2019-03-16T12:27:15.913Z,40.74
2019-03-16T12:29:49.426Z,40.65
2019-03-16T12:32:23.278Z,40.51
2019-03-16T12:34:57.697Z,40.60
2019-03-16T12:37:31.295Z,40.54
2019-03-16T12:40:12.708Z,40.51
2019-03-16T12:42:46.505Z,40.47
2019-03-16T12:45:21.122Z,40.37
2019-03-16T12:47:56.319Z,40.42
2019-03-16T12:50:30.628Z,40.30
2019-03-16T12:53:05.151Z,40.49
2019-03-16T12:55:39.968Z,40.48
2019-03-16T12:58:13.618Z,40.52
2019-03-16T13:00:48.889Z,40.50
2019-03-16T13:03:22.627Z,40.47
2019-03-16T13:05:57.490Z,40.43
2019-03-16T13:08:31.544Z,40.34
2019-03-16T13:11:05.149Z,40.28
2019-03-16T13:13:42.684Z,40.29
2019-03-16T13:16:18.759Z,40.33
2019-03-16T13:18:52.127Z,40.49
2019-03-16T13:21:25.812Z,40.55
2019-03-16T13:24:01.005Z,40.57
2019-03-16T13:26:34.673Z,40.54
2019-03-16T13:29:08.960Z,40.56
2019-03-16T13:31:42.529Z,40.52
2019-03-16T13:34:15.916Z,40.49
2019-03-16T13:36:49.488Z,40.46
2019-03-16T13:39:22.928Z,40.45
2019-03-16T13:41:56.474Z,40.40
2019-03-16T13:44:29.933Z,40.39
2019-03-16T13:47:03.346Z,40.37
2019-03-16T13:49:36.829Z,40.42
2019-03-16T13:52:10.247Z,40.44
2019-03-16T13:54:45.445Z,40.45
2019-03-16T13:57:18.802Z,40.45
2019-03-16T13:59:52.385Z,40.33
2019-03-16T14:02:26.902Z,40.25
2019-03-16T14:05:00.386Z,40.17
2019-03-16T14:07:34.213Z,40.23
2019-03-16T14:10:11.416Z,39.43
2019-03-16T14:12:44.821Z,38.95
2019-03-16T14:15:18.418Z,39.24
2019-03-16T14:17:52.007Z,39.37
2019-03-16T14:20:25.916Z,39.30
2019-03-16T14:22:59.729Z,39.30
2019-03-16T14:25:33.472Z,39.27
2019-03-16T14:28:06.897Z,39.36
2019-03-16T14:30:43.836Z,39.24
2019-03-16T14:33:15.423Z,39.30
2019-03-16T14:35:48.759Z,39.26
2019-03-16T14:38:22.750Z,39.42
2019-03-16T14:40:56.443Z,39.31
2019-03-16T14:43:30.176Z,39.31
2019-03-16T14:46:03.671Z,39.27
2019-03-16T14:48:37.459Z,39.38
2019-03-16T14:51:11.158Z,39.63
2019-03-16T14:53:45.169Z,39.54
2019-03-16T14:56:19.204Z,39.53
2019-03-16T14:58:53.013Z,39.63
2019-03-16T15:01:26.464Z,39.92
2019-03-16T15:04:00.792Z,39.84
2019-03-16T15:06:34.653Z,39.89
2019-03-16T15:09:10.139Z,39.87
2019-03-16T15:11:43.687Z,40.00
2019-03-16T15:14:21.964Z,39.95
2019-03-16T15:16:54.358Z,40.07
2019-03-16T15:19:28.040Z,40.01
2019-03-16T15:22:01.794Z,40.21
2019-03-16T15:24:35.898Z,40.31
2019-03-16T15:27:10.955Z,40.10
2019-03-16T15:29:46.612Z,40.03
2019-03-16T15:32:20.032Z,39.95
2019-03-16T15:34:54.390Z,39.92
2019-03-16T15:37:28.385Z,39.77
2019-03-16T15:40:02.363Z,39.54
2019-03-16T15:42:35.813Z,39.78
2019-03-16T15:45:18.423Z,39.92
2019-03-16T15:47:51.904Z,39.83
2019-03-16T15:50:25.211Z,39.80
2019-03-16T15:52:58.688Z,39.88
2019-03-16T15:55:33.813Z,39.84
2019-03-16T15:58:08.863Z,39.94
2019-03-16T16:00:42.558Z,39.73
2019-03-16T16:03:16.160Z,40.01
2019-03-16T16:05:50.226Z,39.77
2019-03-16T16:08:24.493Z,39.79
2019-03-16T16:11:01.253Z,39.87
2019-03-16T16:13:33.535Z,39.63
2019-03-16T16:16:08.289Z,39.90
2019-03-16T16:18:42.363Z,39.97
2019-03-16T16:21:15.858Z,40.04
2019-03-16T16:23:49.979Z,39.97
2019-03-16T16:26:23.481Z,39.94
2019-03-16T16:28:57.077Z,39.97
2019-03-16T16:31:30.800Z,40.03
2019-03-16T16:34:04.549Z,40.02
2019-03-16T16:36:38.604Z,40.20
2019-03-16T16:39:14.349Z,40.20
2019-03-16T16:41:47.585Z,40.13
2019-03-16T16:44:21.057Z,40.10
2019-03-16T16:46:54.743Z,40.09
2019-03-16T16:49:28.222Z,40.11
2019-03-16T16:52:01.720Z,40.07
2019-03-16T16:54:37.678Z,40.26
2019-03-16T16:57:11.213Z,40.26
2019-03-16T16:59:44.600Z,40.09
2019-03-16T17:02:18.410Z,39.94
2019-03-16T17:04:52.256Z,39.94
2019-03-16T17:07:26.705Z,40.00
2019-03-16T17:10:01.173Z,39.99
2019-03-16T17:12:34.828Z,39.88
2019-03-16T17:15:11.145Z,39.73
2019-03-16T17:17:45.448Z,39.74
2019-03-16T17:20:20.247Z,39.73
2019-03-16T17:22:54.061Z,39.83
2019-03-16T17:25:27.474Z,39.99
2019-03-16T17:28:01.020Z,40.93
2019-03-16T17:30:34.827Z,41.05
2019-03-16T17:33:08.763Z,41.43
2019-03-16T17:35:42.433Z,41.64
2019-03-16T17:38:16.447Z,41.50
2019-03-16T17:40:49.948Z,41.16
2019-03-16T17:43:23.448Z,41.21
2019-03-16T17:45:56.996Z,41.19
2019-03-16T17:48:30.518Z,41.24
2019-03-16T17:51:04.179Z,41.12
2019-03-16T17:53:39.552Z,41.15
2019-03-16T17:56:13.296Z,41.03
2019-03-16T17:58:46.893Z,40.87
2019-03-16T18:01:20.244Z,41.10
2019-03-16T18:03:54.916Z,41.03
2019-03-16T18:06:28.691Z,40.85
2019-03-16T18:09:02.225Z,40.78
2019-03-16T18:11:37.567Z,40.83
2019-03-16T18:14:10.870Z,40.64
2019-03-16T18:16:44.297Z,40.60
2019-03-16T18:19:18.451Z,40.60
2019-03-16T18:21:51.923Z,40.42
2019-03-16T18:24:26.408Z,40.30
2019-03-16T18:26:59.899Z,40.25
2019-03-16T18:29:34.563Z,40.12
2019-03-16T18:32:08.510Z,39.99
2019-03-16T18:34:42.088Z,39.82
2019-03-16T18:37:15.487Z,39.78
2019-03-16T18:39:49.161Z,39.67
2019-03-16T18:42:22.598Z,39.58
2019-03-16T18:44:56.267Z,39.28
2019-03-16T18:47:29.896Z,38.98
2019-03-16T18:50:05.475Z,38.83
2019-03-16T18:52:38.703Z,38.17
2019-03-16T18:55:12.872Z,38.37
2019-03-16T18:57:47.057Z,37.86
2019-03-16T19:00:20.485Z,38.04
2019-03-16T19:02:53.841Z,37.96
2019-03-16T19:05:27.236Z,37.92
2019-03-16T19:08:00.905Z,38.01
2019-03-16T19:10:34.359Z,37.91
2019-03-16T19:13:08.037Z,37.77
2019-03-16T19:15:41.957Z,37.83
2019-03-16T19:18:15.476Z,37.89
2019-03-16T19:20:48.875Z,37.73
2019-03-16T19:23:22.268Z,37.70
2019-03-16T19:25:55.776Z,37.72
2019-03-16T19:28:29.364Z,37.83
2019-03-16T19:31:02.978Z,37.98
2019-03-16T19:33:36.507Z,37.94
2019-03-16T19:36:10.137Z,37.93
2019-03-16T19:38:43.774Z,37.84
2019-03-16T19:41:17.043Z,37.83
2019-03-16T19:43:50.583Z,37.79
2019-03-16T19:46:24.288Z,37.69
2019-03-16T19:48:57.785Z,37.73
2019-03-16T19:51:31.303Z,37.83
2019-03-16T19:54:04.745Z,37.77
2019-03-16T19:56:39.328Z,37.95
2019-03-16T19:59:12.911Z,38.08
2019-03-16T20:01:46.902Z,38.29
2019-03-16T20:04:20.302Z,38.32
2019-03-16T20:06:54.127Z,38.53
2019-03-16T20:09:27.695Z,38.83
2019-03-16T20:12:01.487Z,38.79
2019-03-16T20:14:36.145Z,38.81
2019-03-16T20:17:09.540Z,38.99
2019-03-16T20:19:43.314Z,38.98
2019-03-16T20:22:16.856Z,38.93
2019-03-16T20:24:51.656Z,39.03
2019-03-16T20:27:25.170Z,39.05
2019-03-16T20:29:58.847Z,38.92
2019-03-16T20:32:33.403Z,38.58
2019-03-16T20:35:08.526Z,38.39
2019-03-16T20:37:41.943Z,38.36
2019-03-16T20:40:17.077Z,38.36
2019-03-16T20:42:50.661Z,38.28
2019-03-16T20:45:24.147Z,38.29
2019-03-16T20:47:57.705Z,38.43
2019-03-16T20:50:31.206Z,38.43
2019-03-16T20:53:04.987Z,38.45
2019-03-16T20:55:38.385Z,38.50
2019-03-16T20:58:11.770Z,38.38
2019-03-16T21:00:45.205Z,38.26
2019-03-16T21:03:19.268Z,38.33
2019-03-16T21:05:52.848Z,38.47
2019-03-16T21:08:26.378Z,38.41
2019-03-16T21:10:59.658Z,38.51
2019-03-16T21:13:33.482Z,38.55
2019-03-16T21:16:06.982Z,38.47
2019-03-16T21:18:40.434Z,38.44
2019-03-16T21:21:13.890Z,38.41
2019-03-16T21:23:47.452Z,38.49
2019-03-16T21:26:20.907Z,38.41
2019-03-16T21:28:54.301Z,38.50
2019-03-16T21:31:27.547Z,38.45
2019-03-16T21:34:01.079Z,38.51
2019-03-16T21:36:41.470Z,38.63
2019-03-16T21:39:10.423Z,38.58
2019-03-16T21:41:44.510Z,38.50
2019-03-16T21:44:18.257Z,38.44
2019-03-16T21:46:51.793Z,38.44
2019-03-16T21:49:25.636Z,38.39
2019-03-16T21:51:59.026Z,38.33
2019-03-16T21:54:32.464Z,38.30
2019-03-16T21:57:07.456Z,38.33
2019-03-16T21:59:40.911Z,38.23
2019-03-16T22:02:14.258Z,38.26
2019-03-16T22:04:47.795Z,38.24
2019-03-16T22:07:21.251Z,38.21
2019-03-16T22:09:54.694Z,38.22
2019-03-16T22:12:28.325Z,38.12
2019-03-16T22:15:02.096Z,38.12
2019-03-16T22:17:35.644Z,38.16
2019-03-16T22:20:13.789Z,38.21
2019-03-16T22:22:47.840Z,38.17
2019-03-16T22:25:21.152Z,38.25
2019-03-16T22:27:54.604Z,38.24
2019-03-16T22:30:28.047Z,38.39
2019-03-16T22:33:01.596Z,38.40
2019-03-16T22:35:34.882Z,38.38
2019-03-16T22:38:08.440Z,38.34
2019-03-16T22:40:42.110Z,38.28
2019-03-16T22:43:15.765Z,38.24
2019-03-16T22:45:49.306Z,38.36
2019-03-16T22:48:22.716Z,38.38
2019-03-16T22:50:56.807Z,38.38
2019-03-16T22:53:31.615Z,38.28
2019-03-16T22:56:05.159Z,38.20
2019-03-16T22:58:38.801Z,38.25
2019-03-16T23:01:12.081Z,38.22
2019-03-16T23:03:45.690Z,38.12
2019-03-16T23:06:19.188Z,38.08
2019-03-16T23:08:52.671Z,38.01
2019-03-16T23:11:26.148Z,38.00
2019-03-16T23:14:01.257Z,38.01
2019-03-16T23:16:34.862Z,37.97
2019-03-16T23:19:08.319Z,37.94
2019-03-16T23:21:41.783Z,37.96
2019-03-16T23:24:15.374Z,37.97
2019-03-16T23:26:48.766Z,37.96
2019-03-16T23:29:22.690Z,38.08
2019-03-16T23:31:56.196Z,38.08
2019-03-16T23:34:29.645Z,38.02
2019-03-16T23:37:04.571Z,37.95
2019-03-16T23:39:39.501Z,37.95
2019-03-16T23:42:12.958Z,37.91
2019-03-16T23:44:46.518Z,37.92
2019-03-16T23:47:20.137Z,37.90
2019-03-16T23:49:53.531Z,37.89
2019-03-16T23:52:27.163Z,37.91
2019-03-16T23:55:00.657Z,37.89
2019-03-16T23:57:35.671Z,37.89
